createdAt,value
2023-11-25T00:00:48.524Z,-1.54
2023-11-25T00:03:15.939Z,-1.53
2023-11-25T00:05:42.910Z,-1.52
2023-11-25T00:08:09.800Z,-1.58
2023-11-25T00:10:36.440Z,-1.56
2023-11-25T00:13:04.877Z,-1.58
2023-11-25T00:15:31.468Z,-1.57
2023-11-25T00:17:58.470Z,-1.56
2023-11-25T00:20:26.554Z,-1.58
2023-11-25T00:22:53.640Z,-1.60
2023-11-25T00:25:21.063Z,-1.62
2023-11-25T00:27:47.762Z,-1.63
2023-11-25T00:30:15.608Z,-1.67
2023-11-25T00:32:42.802Z,-1.67
2023-11-25T00:35:10.174Z,-1.68
2023-11-25T00:37:37.504Z,-1.69
2023-11-25T00:40:11.423Z,-1.70
2023-11-25T00:42:41.228Z,-1.68
2023-11-25T00:45:10.983Z,-1.72
2023-11-25T00:47:41.310Z,-1.70
2023-11-25T00:50:12.607Z,-1.70
2023-11-25T00:52:40.172Z,-1.69
2023-11-25T00:55:08.259Z,-1.69
2023-11-25T00:57:35.326Z,-1.72
2023-11-25T01:00:01.923Z,-1.77
2023-11-25T01:02:29.497Z,-1.78
2023-11-25T01:04:56.541Z,-1.79
2023-11-25T01:07:23.741Z,-1.80
2023-11-25T01:09:50.520Z,-1.80
2023-11-25T01:12:17.260Z,-1.80
2023-11-25T01:14:43.840Z,-1.78
2023-11-25T01:17:10.656Z,-1.78
2023-11-25T01:19:37.948Z,-1.78
2023-11-25T01:22:05.468Z,-1.78
2023-11-25T01:24:32.191Z,-1.79
2023-11-25T01:26:59.493Z,-1.84
2023-11-25T01:29:26.167Z,-1.86
2023-11-25T01:31:52.768Z,-1.88
2023-11-25T01:34:19.474Z,-1.88
2023-11-25T01:36:46.099Z,-1.91
2023-11-25T01:39:12.818Z,-1.94
2023-11-25T01:41:39.427Z,-1.98
2023-11-25T01:44:08.598Z,-1.99
2023-11-25T01:46:39.751Z,-2.01
2023-11-25T01:49:11.830Z,-2.02
2023-11-25T01:51:44.170Z,-2.04
2023-11-25T01:54:15.228Z,-2.02
2023-11-25T01:56:43.134Z,-2.07
2023-11-25T01:59:12.526Z,-2.06
2023-11-25T02:01:40.301Z,-2.05
2023-11-25T02:04:07.237Z,-2.05
2023-11-25T02:06:33.984Z,-2.12
2023-11-25T02:09:00.608Z,-2.09
2023-11-25T02:11:27.276Z,-2.12
2023-11-25T02:13:53.860Z,-2.18
2023-11-25T02:16:21.535Z,-2.21
2023-11-25T02:18:48.645Z,-2.27
2023-11-25T02:21:15.298Z,-2.33
2023-11-25T02:23:42.890Z,-2.40
2023-11-25T02:26:09.547Z,-2.45
2023-11-25T02:28:37.119Z,-2.49
2023-11-25T02:31:04.694Z,-2.58
2023-11-25T02:33:37.849Z,-2.64
2023-11-25T02:36:05.637Z,-2.73
2023-11-25T02:38:32.238Z,-2.80
2023-11-25T02:40:58.993Z,-2.83
2023-11-25T02:43:27.426Z,-2.87
2023-11-25T02:45:54.299Z,-2.92
2023-11-25T02:48:20.983Z,-3.00
2023-11-25T02:50:48.800Z,-3.02
2023-11-25T02:53:15.778Z,-3.02
2023-11-25T02:55:42.656Z,-2.98
2023-11-25T02:58:09.406Z,-2.96
2023-11-25T03:00:41.108Z,-2.95
2023-11-25T03:03:14.254Z,-2.97
2023-11-25T03:05:47.384Z,-2.98
2023-11-25T03:08:14.559Z,-2.97
2023-11-25T03:10:47.655Z,-2.97
2023-11-25T03:13:15.889Z,-3.00
2023-11-25T03:15:42.911Z,-3.02
2023-11-25T03:18:09.826Z,-2.96
2023-11-25T03:20:37.654Z,-2.93
2023-11-25T03:23:04.517Z,-2.88
2023-11-25T03:25:34.939Z,-2.84
2023-11-25T03:28:05.810Z,-2.82
2023-11-25T03:30:32.957Z,-2.81
2023-11-25T03:33:02.077Z,-2.74
2023-11-25T03:35:28.991Z,-2.71
2023-11-25T03:37:55.590Z,-2.66
2023-11-25T03:40:23.247Z,-2.64
2023-11-25T03:42:49.985Z,-2.60
2023-11-25T03:45:17.011Z,-2.60
2023-11-25T03:47:47.713Z,-2.58
2023-11-25T03:50:14.411Z,-2.61
2023-11-25T03:52:44.640Z,-2.58
2023-11-25T03:55:12.069Z,-2.59
2023-11-25T03:57:39.945Z,-2.55
2023-11-25T04:00:15.614Z,-2.56
2023-11-25T04:02:47.431Z,-2.54
2023-11-25T04:05:15.149Z,-2.54
2023-11-25T04:07:42.052Z,-2.59
2023-11-25T04:10:19.598Z,-2.61
2023-11-25T04:12:52.430Z,-2.61
2023-11-25T04:15:22.842Z,-2.60
2023-11-25T04:17:50.133Z,-2.62
2023-11-25T04:20:26.067Z,-2.62
2023-11-25T04:22:53.833Z,-2.64
2023-11-25T04:25:20.854Z,-2.64
2023-11-25T04:27:49.313Z,-2.62
2023-11-25T04:30:17.305Z,-2.62
2023-11-25T04:32:46.772Z,-2.46
2023-11-25T04:35:16.777Z,-2.30
2023-11-25T04:37:46.483Z,-2.29
2023-11-25T04:40:13.656Z,-2.27
2023-11-25T04:42:44.518Z,-2.28
2023-11-25T04:45:20.007Z,-2.27
2023-11-25T04:47:49.046Z,-2.30
2023-11-25T04:50:16.548Z,-2.36
2023-11-25T04:52:44.293Z,-2.34
2023-11-25T04:55:15.302Z,-2.32
2023-11-25T04:57:43.285Z,-2.32
2023-11-25T05:00:11.932Z,-2.31
2023-11-25T05:02:39.449Z,-2.31
2023-11-25T05:05:07.796Z,-2.30
2023-11-25T05:07:35.727Z,-2.32
2023-11-25T05:10:04.415Z,-2.29
2023-11-25T05:12:31.069Z,-2.27
2023-11-25T05:14:57.739Z,-2.27
2023-11-25T05:17:27.632Z,-2.25
2023-11-25T05:19:54.463Z,-2.25
2023-11-25T05:22:22.397Z,-2.24
2023-11-25T05:24:49.077Z,-2.25
2023-11-25T05:27:15.697Z,-2.23
2023-11-25T05:29:42.347Z,-2.21
2023-11-25T05:32:10.082Z,-2.18
2023-11-25T05:34:37.456Z,-2.17
2023-11-25T05:37:04.770Z,-2.15
2023-11-25T05:39:31.579Z,-2.14
2023-11-25T05:41:58.391Z,-2.13
2023-11-25T05:44:26.595Z,-2.12
2023-11-25T05:46:56.283Z,-2.13
2023-11-25T05:49:23.624Z,-2.10
2023-11-25T05:51:52.197Z,-2.08
2023-11-25T05:54:19.682Z,-2.06
2023-11-25T05:56:49.687Z,-2.04
2023-11-25T05:59:17.545Z,-2.03
2023-11-25T06:01:44.632Z,-2.04
2023-11-25T06:04:11.622Z,-1.99
2023-11-25T06:06:39.460Z,-1.97
2023-11-25T06:09:07.891Z,-1.99
2023-11-25T06:11:34.589Z,-1.99
2023-11-25T06:14:01.335Z,-1.99
2023-11-25T06:16:28.092Z,-2.00
2023-11-25T06:18:55.972Z,-2.03
2023-11-25T06:21:23.278Z,-2.06
2023-11-25T06:23:51.694Z,-2.07
2023-11-25T06:26:18.535Z,-2.08
2023-11-25T06:28:47.809Z,-2.12
2023-11-25T06:31:15.901Z,-2.16
2023-11-25T06:33:43.285Z,-2.18
2023-11-25T06:36:11.432Z,-2.23
2023-11-25T06:38:38.814Z,-2.25
2023-11-25T06:41:06.010Z,-2.23
2023-11-25T06:43:32.824Z,-2.25
2023-11-25T06:46:00.857Z,-2.26
2023-11-25T06:48:29.594Z,-2.28
2023-11-25T06:50:57.690Z,-2.28
2023-11-25T06:53:24.256Z,-2.28
2023-11-25T06:55:50.940Z,-2.29
2023-11-25T06:58:19.425Z,-2.32
2023-11-25T07:00:46.233Z,-2.33
2023-11-25T07:03:15.744Z,-2.36
2023-11-25T07:05:43.104Z,-2.36
2023-11-25T07:08:10.962Z,-2.35
2023-11-25T07:10:37.948Z,-2.33
2023-11-25T07:13:07.048Z,-2.32
2023-11-25T07:15:33.701Z,-2.31
2023-11-25T07:18:01.319Z,-2.31
2023-11-25T07:20:28.552Z,-2.32
2023-11-25T07:22:55.325Z,-2.26
2023-11-25T07:25:22.009Z,-2.24
2023-11-25T07:27:48.760Z,-2.23
2023-11-25T07:30:17.518Z,-2.20
2023-11-25T07:32:45.567Z,-2.21
2023-11-25T07:35:14.018Z,-2.21
2023-11-25T07:37:41.320Z,-2.21
2023-11-25T07:40:15.993Z,-2.22
2023-11-25T07:42:45.000Z,-2.24
2023-11-25T07:45:11.746Z,-2.25
2023-11-25T07:47:39.024Z,-2.27
2023-11-25T07:50:06.414Z,-2.10
2023-11-25T07:52:33.304Z,-1.94
2023-11-25T07:55:00.142Z,-1.96
2023-11-25T07:57:27.813Z,-1.99
2023-11-25T07:59:54.645Z,-2.05
2023-11-25T08:02:21.420Z,-2.08
2023-11-25T08:04:48.316Z,-2.13
2023-11-25T08:07:16.060Z,-2.15
2023-11-25T08:09:44.045Z,-2.15
2023-11-25T08:12:11.044Z,-2.13
2023-11-25T08:14:37.622Z,-2.15
2023-11-25T08:17:04.485Z,-2.16
2023-11-25T08:19:31.293Z,-2.13
2023-11-25T08:21:58.060Z,-2.15
2023-11-25T08:24:24.744Z,-2.11
2023-11-25T08:26:51.591Z,-2.11
2023-11-25T08:29:19.716Z,-2.06
2023-11-25T08:31:46.966Z,-2.05
2023-11-25T08:34:14.683Z,-2.02
2023-11-25T08:36:45.713Z,-2.03
2023-11-25T08:39:14.741Z,-1.98
2023-11-25T08:41:44.580Z,-1.96
2023-11-25T08:44:14.503Z,-2.00
2023-11-25T08:46:44.146Z,-1.94
2023-11-25T08:49:12.929Z,-1.91
2023-11-25T08:51:47.370Z,-1.85
2023-11-25T08:54:15.311Z,-1.81
2023-11-25T08:56:45.215Z,-1.74
2023-11-25T08:59:12.774Z,-1.68
2023-11-25T09:01:40.719Z,-1.65
2023-11-25T09:04:11.027Z,-1.61
2023-11-25T09:06:40.632Z,-1.59
2023-11-25T09:09:08.640Z,-1.53
2023-11-25T09:11:36.687Z,-1.50
2023-11-25T09:14:05.624Z,-1.47
2023-11-25T09:16:33.022Z,-1.45
2023-11-25T09:19:00.761Z,-1.48
2023-11-25T09:21:27.880Z,-1.48
2023-11-25T09:23:56.381Z,-1.47
2023-11-25T09:26:25.717Z,-1.47
2023-11-25T09:28:56.442Z,-1.48
2023-11-25T09:31:26.396Z,-1.48
2023-11-25T09:33:53.096Z,-1.51
2023-11-25T09:36:20.360Z,-1.52
2023-11-25T09:38:47.314Z,-1.50
2023-11-25T09:41:15.643Z,-1.52
2023-11-25T09:43:43.880Z,-1.47
2023-11-25T09:46:12.530Z,-1.49
2023-11-25T09:48:39.268Z,-1.44
2023-11-25T09:51:09.380Z,-1.40
2023-11-25T09:53:38.049Z,-1.36
2023-11-25T09:56:08.109Z,-1.38
2023-11-25T09:58:36.389Z,-1.37
2023-11-25T10:01:07.130Z,-1.36
2023-11-25T10:03:35.813Z,-1.34
2023-11-25T10:06:03.513Z,-1.35
2023-11-25T10:08:31.109Z,-1.37
2023-11-25T10:11:15.772Z,-1.37
2023-11-25T10:13:44.120Z,-1.39
2023-11-25T10:16:11.615Z,-1.46
2023-11-25T10:18:39.348Z,-1.48
2023-11-25T10:21:07.414Z,-1.47
2023-11-25T10:23:36.021Z,-1.49
2023-11-25T10:26:04.973Z,-1.52
2023-11-25T10:28:37.895Z,-1.52
2023-11-25T10:31:06.800Z,-1.54
2023-11-25T10:33:35.468Z,-1.56
2023-11-25T10:36:03.172Z,-1.58
2023-11-25T10:38:30.718Z,-1.56
2023-11-25T10:41:01.132Z,-1.53
2023-11-25T10:43:29.051Z,-1.51
2023-11-25T10:46:09.064Z,-1.47
2023-11-25T10:48:43.774Z,-1.45
2023-11-25T10:51:11.946Z,-1.42
2023-11-25T10:53:40.684Z,-1.40
2023-11-25T10:56:08.394Z,-1.36
2023-11-25T10:58:36.201Z,-1.34
2023-11-25T11:01:03.894Z,-1.33
2023-11-25T11:03:55.191Z,-1.32
2023-11-25T11:06:29.061Z,-1.37
2023-11-25T11:08:56.677Z,-1.37
2023-11-25T11:11:32.270Z,-1.37
2023-11-25T11:14:10.429Z,-1.36
2023-11-25T11:16:49.274Z,-1.38
2023-11-25T11:19:21.319Z,-1.39
2023-11-25T11:21:52.535Z,-1.40
2023-11-25T11:24:24.846Z,-1.39
2023-11-25T11:27:07.868Z,-1.37
2023-11-25T11:29:50.123Z,-1.36
2023-11-25T11:32:21.398Z,-1.37
2023-11-25T11:34:49.786Z,-1.37
2023-11-25T11:37:16.465Z,-1.35
2023-11-25T11:39:51.928Z,-1.33
2023-11-25T11:42:27.837Z,-1.31
2023-11-25T11:45:27.594Z,-1.30
2023-11-25T11:47:58.902Z,-1.29
2023-11-25T11:50:30.697Z,-1.28
2023-11-25T11:53:00.375Z,-1.28
2023-11-25T11:55:40.700Z,-1.27
2023-11-25T11:58:09.408Z,-1.26
2023-11-25T12:00:43.405Z,-1.23
2023-11-25T12:03:10.466Z,-1.24
2023-11-25T12:05:37.576Z,-1.22
2023-11-25T12:08:05.090Z,-1.20
2023-11-25T12:10:31.758Z,-1.18
2023-11-25T12:12:58.758Z,-1.16
2023-11-25T12:15:25.610Z,-1.15
2023-11-25T12:17:57.129Z,-1.16
2023-11-25T12:20:24.132Z,-1.15
2023-11-25T12:22:51.630Z,-1.13
2023-11-25T12:25:19.922Z,-1.14
2023-11-25T12:28:10.750Z,-1.16
2023-11-25T12:30:41.983Z,-1.15
2023-11-25T12:33:10.108Z,-1.15
2023-11-25T12:35:38.233Z,-1.12
2023-11-25T12:38:14.793Z,-1.14
2023-11-25T12:40:45.809Z,-1.14
2023-11-25T12:43:12.777Z,-1.14
2023-11-25T12:45:41.956Z,-1.14
2023-11-25T12:48:13.287Z,-1.17
2023-11-25T12:51:08.994Z,-1.18
2023-11-25T12:53:38.414Z,-1.19
2023-11-25T12:56:14.012Z,-1.21
2023-11-25T12:58:44.627Z,-1.20
2023-11-25T13:01:12.040Z,-1.20
2023-11-25T13:03:38.791Z,-1.18
2023-11-25T13:06:13.070Z,-1.15
2023-11-25T13:08:46.528Z,-1.19
2023-11-25T13:11:16.350Z,-1.17
2023-11-25T13:13:43.247Z,-1.16
2023-11-25T13:16:11.801Z,-1.15
2023-11-25T13:18:47.658Z,-1.17
2023-11-25T13:21:14.534Z,-1.18
2023-11-25T13:23:41.164Z,-1.21
2023-11-25T13:26:08.972Z,-1.26
2023-11-25T13:28:37.670Z,-1.29
2023-11-25T13:31:04.824Z,-1.29
2023-11-25T13:33:31.477Z,-1.31
2023-11-25T13:35:58.198Z,-1.33
2023-11-25T13:38:24.806Z,-1.36
2023-11-25T13:40:51.442Z,-1.36
2023-11-25T13:43:18.506Z,-1.36
2023-11-25T13:45:45.463Z,-1.38
2023-11-25T13:48:16.068Z,-1.40
2023-11-25T13:50:43.225Z,-1.42
2023-11-25T13:53:10.181Z,-1.44
2023-11-25T13:55:44.550Z,-1.47
2023-11-25T13:58:11.467Z,-1.48
2023-11-25T14:00:38.517Z,-1.51
2023-11-25T14:03:11.361Z,-1.49
2023-11-25T14:05:39.446Z,-1.52
2023-11-25T14:08:09.150Z,-1.53
2023-11-25T14:10:38.675Z,-1.52
2023-11-25T14:13:07.236Z,-1.52
2023-11-25T14:15:33.950Z,-1.53
2023-11-25T14:18:02.448Z,-1.51
2023-11-25T14:20:30.067Z,-1.51
2023-11-25T14:22:57.771Z,-1.50
2023-11-25T14:25:25.294Z,-1.49
2023-11-25T14:27:51.978Z,-1.48
2023-11-25T14:30:18.726Z,-1.48
2023-11-25T14:32:50.009Z,-1.46
2023-11-25T14:35:19.728Z,-1.49
2023-11-25T14:37:46.418Z,-1.51
2023-11-25T14:40:15.498Z,-1.50
2023-11-25T14:42:42.657Z,-1.52
2023-11-25T14:45:09.777Z,-1.52
2023-11-25T14:47:37.572Z,-1.39
2023-11-25T14:50:05.911Z,-1.29
2023-11-25T14:52:35.115Z,-1.30
2023-11-25T14:55:02.711Z,-1.38
2023-11-25T14:57:29.390Z,-1.47
2023-11-25T14:59:56.015Z,-1.60
2023-11-25T15:02:22.737Z,-1.67
2023-11-25T15:04:49.504Z,-1.73
2023-11-25T15:07:16.220Z,-1.81
2023-11-25T15:09:45.375Z,-1.86
2023-11-25T15:12:12.431Z,-1.92
2023-11-25T15:14:39.248Z,-1.98
2023-11-25T15:17:09.305Z,-2.04
2023-11-25T15:19:38.052Z,-2.10
2023-11-25T15:22:05.540Z,-2.10
2023-11-25T15:24:32.294Z,-2.12
2023-11-25T15:26:58.888Z,-2.17
2023-11-25T15:29:25.719Z,-2.20
2023-11-25T15:31:52.511Z,-2.22
2023-11-25T15:34:19.256Z,-2.24
2023-11-25T15:36:45.959Z,-2.26
2023-11-25T15:39:17.594Z,-2.29
2023-11-25T15:41:47.326Z,-2.32
2023-11-25T15:44:14.370Z,-2.34
2023-11-25T15:46:41.747Z,-2.37
2023-11-25T15:49:11.343Z,-2.40
2023-11-25T15:51:37.959Z,-2.43
2023-11-25T15:54:05.064Z,-2.47
2023-11-25T15:56:31.737Z,-2.53
2023-11-25T15:59:00.908Z,-2.60
2023-11-25T16:01:29.580Z,-2.67
2023-11-25T16:03:56.457Z,-2.69
2023-11-25T16:06:23.135Z,-2.69
2023-11-25T16:08:49.785Z,-2.68
2023-11-25T16:11:16.387Z,-2.69
2023-11-25T16:13:43.471Z,-2.72
2023-11-25T16:16:10.546Z,-2.76
2023-11-25T16:18:37.361Z,-2.79
2023-11-25T16:21:04.062Z,-2.85
2023-11-25T16:23:30.797Z,-2.90
2023-11-25T16:25:57.520Z,-2.94
2023-11-25T16:28:24.184Z,-2.99
2023-11-25T16:30:50.909Z,-3.02
2023-11-25T16:33:17.605Z,-3.08
2023-11-25T16:35:44.270Z,-3.17
2023-11-25T16:38:10.981Z,-3.22
2023-11-25T16:40:37.733Z,-3.28
2023-11-25T16:43:04.819Z,-3.37
2023-11-25T16:45:33.525Z,-3.47
2023-11-25T16:48:01.543Z,-3.51
2023-11-25T16:50:29.566Z,-3.58
2023-11-25T16:52:56.330Z,-3.62
2023-11-25T16:55:22.966Z,-3.66
2023-11-25T16:57:49.581Z,-3.71
2023-11-25T17:00:17.598Z,-3.75
2023-11-25T17:02:45.241Z,-3.79
2023-11-25T17:05:12.186Z,-3.84
2023-11-25T17:07:39.333Z,-3.87
2023-11-25T17:10:07.146Z,-3.91
2023-11-25T17:12:34.272Z,-3.93
2023-11-25T17:15:01.560Z,-3.95
2023-11-25T17:17:28.532Z,-3.97
2023-11-25T17:19:55.527Z,-3.99
2023-11-25T17:22:22.254Z,-3.99
2023-11-25T17:24:48.877Z,-4.00
2023-11-25T17:27:15.663Z,-4.02
2023-11-25T17:29:42.470Z,-4.07
2023-11-25T17:32:10.792Z,-4.11
2023-11-25T17:34:37.739Z,-4.13
2023-11-25T17:37:04.713Z,-4.13
2023-11-25T17:39:31.374Z,-4.12
2023-11-25T17:41:58.042Z,-4.12
2023-11-25T17:44:25.038Z,-4.13
2023-11-25T17:46:51.685Z,-4.15
2023-11-25T17:49:18.282Z,-4.14
2023-11-25T17:51:45.112Z,-4.17
2023-11-25T17:54:12.509Z,-4.19
2023-11-25T17:56:39.383Z,-4.21
2023-11-25T17:59:06.093Z,-4.22
2023-11-25T18:01:33.274Z,-4.23
2023-11-25T18:04:00.077Z,-4.26
2023-11-25T18:06:26.738Z,-4.26
2023-11-25T18:08:54.028Z,-4.31
2023-11-25T18:11:20.818Z,-4.32
2023-11-25T18:13:48.426Z,-4.32
2023-11-25T18:16:17.109Z,-4.32
2023-11-25T18:18:44.328Z,-4.31
2023-11-25T18:21:12.202Z,-4.34
2023-11-25T18:23:39.062Z,-4.35
2023-11-25T18:26:06.037Z,-4.36
2023-11-25T18:28:33.042Z,-4.34
2023-11-25T18:30:59.893Z,-4.33
2023-11-25T18:33:26.672Z,-4.31
2023-11-25T18:35:53.442Z,-4.30
2023-11-25T18:38:20.121Z,-4.31
2023-11-25T18:40:46.787Z,-4.30
2023-11-25T18:43:13.493Z,-4.30
2023-11-25T18:45:40.136Z,-4.29
2023-11-25T18:48:08.143Z,-4.26
2023-11-25T18:50:35.206Z,-4.24
2023-11-25T18:53:02.155Z,-4.20
2023-11-25T18:55:28.988Z,-4.18
2023-11-25T18:57:55.599Z,-4.14
2023-11-25T19:00:22.279Z,-4.13
2023-11-25T19:02:49.223Z,-4.05
2023-11-25T19:05:16.796Z,-4.03
2023-11-25T19:07:46.157Z,-4.00
2023-11-25T19:10:12.937Z,-3.97
2023-11-25T19:12:39.829Z,-3.91
2023-11-25T19:15:06.855Z,-3.91
2023-11-25T19:17:33.637Z,-3.88
2023-11-25T19:20:01.478Z,-3.86
2023-11-25T19:22:28.122Z,-3.85
2023-11-25T19:24:54.776Z,-3.84
2023-11-25T19:27:21.395Z,-3.81
2023-11-25T19:29:48.041Z,-3.79
2023-11-25T19:32:14.814Z,-3.79
2023-11-25T19:34:41.743Z,-3.79
2023-11-25T19:37:09.326Z,-3.77
2023-11-25T19:39:36.047Z,-3.76
2023-11-25T19:42:02.616Z,-3.72
2023-11-25T19:44:29.240Z,-3.69
2023-11-25T19:46:57.694Z,-3.70
2023-11-25T19:49:24.482Z,-3.69
2023-11-25T19:51:52.567Z,-3.68
2023-11-25T19:54:22.760Z,-3.66
2023-11-25T19:56:53.379Z,-3.65
2023-11-25T19:59:20.216Z,-3.62
2023-11-25T20:01:47.142Z,-3.59
2023-11-25T20:04:13.962Z,-3.55
2023-11-25T20:06:40.626Z,-3.55
2023-11-25T20:09:07.315Z,-3.52
2023-11-25T20:11:33.993Z,-3.52
2023-11-25T20:14:00.753Z,-3.50
2023-11-25T20:16:34.552Z,-3.48
2023-11-25T20:19:01.175Z,-3.47
2023-11-25T20:21:27.898Z,-3.47
2023-11-25T20:23:54.480Z,-3.47
2023-11-25T20:26:21.091Z,-3.45
2023-11-25T20:28:47.747Z,-3.41
2023-11-25T20:31:14.411Z,-3.38
2023-11-25T20:33:42.052Z,-3.35
2023-11-25T20:36:15.220Z,-3.34
2023-11-25T20:38:41.907Z,-3.32
2023-11-25T20:41:11.974Z,-3.29
2023-11-25T20:43:39.949Z,-3.26
2023-11-25T20:46:07.033Z,-3.23
2023-11-25T20:48:34.761Z,-3.20
2023-11-25T20:51:06.286Z,-3.17
2023-11-25T20:53:33.660Z,-3.09
2023-11-25T20:56:00.508Z,-3.06
2023-11-25T20:58:28.732Z,-3.04
2023-11-25T21:00:56.418Z,-3.03
2023-11-25T21:03:23.524Z,-2.97
2023-11-25T21:05:50.286Z,-2.95
2023-11-25T21:08:17.258Z,-2.92
2023-11-25T21:10:43.989Z,-2.89
2023-11-25T21:13:10.985Z,-2.86
2023-11-25T21:15:37.629Z,-2.83
2023-11-25T21:18:04.735Z,-2.81
2023-11-25T21:20:31.631Z,-2.80
2023-11-25T21:22:58.382Z,-2.78
2023-11-25T21:25:25.016Z,-2.75
2023-11-25T21:27:54.607Z,-2.74
2023-11-25T21:30:21.385Z,-2.72
2023-11-25T21:32:48.077Z,-2.71
2023-11-25T21:35:15.085Z,-2.68
2023-11-25T21:37:41.819Z,-2.65
2023-11-25T21:40:16.794Z,-2.63
2023-11-25T21:42:49.752Z,-2.63
2023-11-25T21:45:16.379Z,-2.61
2023-11-25T21:47:42.983Z,-2.59
2023-11-25T21:50:10.803Z,-2.58
2023-11-25T21:52:39.443Z,-2.57
2023-11-25T21:55:06.553Z,-2.55
2023-11-25T21:57:33.458Z,-2.56
2023-11-25T22:00:00.052Z,-2.51
2023-11-25T22:02:27.307Z,-2.48
2023-11-25T22:04:54.181Z,-2.48
2023-11-25T22:07:20.810Z,-2.46
2023-11-25T22:09:48.989Z,-2.43
2023-11-25T22:12:15.643Z,-2.44
2023-11-25T22:14:42.247Z,-2.42
2023-11-25T22:17:09.297Z,-2.40
2023-11-25T22:19:35.954Z,-2.40
2023-11-25T22:22:02.778Z,-2.38
2023-11-25T22:24:29.431Z,-2.34
2023-11-25T22:27:07.368Z,-2.32
2023-11-25T22:29:34.011Z,-2.29
2023-11-25T22:32:00.700Z,-2.28
2023-11-25T22:34:27.380Z,-2.23
2023-11-25T22:36:54.010Z,-2.17
2023-11-25T22:39:20.665Z,-2.15
2023-11-25T22:41:47.327Z,-2.10
2023-11-25T22:44:14.332Z,-2.07
2023-11-25T22:46:44.359Z,-2.06
2023-11-25T22:49:11.106Z,-2.02
2023-11-25T22:51:38.571Z,-1.99
2023-11-25T22:54:05.296Z,-1.97
2023-11-25T22:56:31.891Z,-1.95
2023-11-25T22:58:58.508Z,-1.89
2023-11-25T23:01:36.856Z,-1.86
2023-11-25T23:04:04.007Z,-1.82
2023-11-25T23:06:36.154Z,-1.79
2023-11-25T23:09:05.610Z,-1.76
2023-11-25T23:11:32.897Z,-1.71
2023-11-25T23:14:05.215Z,-1.68
2023-11-25T23:16:32.703Z,-1.65
2023-11-25T23:19:00.214Z,-1.65
2023-11-25T23:21:29.739Z,-1.46
2023-11-25T23:23:56.551Z,-1.30
2023-11-25T23:26:23.242Z,-1.25
2023-11-25T23:28:50.322Z,-1.26
2023-11-25T23:31:17.249Z,-1.27
2023-11-25T23:33:43.872Z,-1.27
2023-11-25T23:36:10.718Z,-1.27
2023-11-25T23:38:37.472Z,-1.25
2023-11-25T23:41:04.316Z,-1.24
2023-11-25T23:43:31.422Z,-1.24
2023-11-25T23:45:58.391Z,-1.21
2023-11-25T23:48:25.059Z,-1.17
2023-11-25T23:50:52.240Z,-1.15
2023-11-25T23:53:18.989Z,-1.11
2023-11-25T23:55:45.685Z,-1.06
2023-11-25T23:58:12.295Z,-1.03
